Time;durP1;ratioP1;P1;durP2;ratioP2;P2;SDS_P1;SDS_P2;PMS_P1;PMS_P2;Temp;Humidity;BMP_temperature;BMP_pressure;BME280_temperature;BME280_humidity;BME280_pressure;Samples;Min_cycle;Max_cycle;Signal;HPM_P1;HPM_P2
2024/01/29 00:01:52;;;;;;;45.38;19.73;;;;;;;30.44;59.67;101460.75;5023325;28;69830;-39
2024/01/29 00:04:22;;;;;;;48.05;20.08;;;;;;;30.46;59.29;101469.50;5030962;28;66100;-47
2024/01/29 00:06:52;;;;;;;41.45;19.27;;;;;;;30.38;58.47;101439.91;5020471;28;70888;-39
2024/01/29 00:09:23;;;;;;;41.90;20.92;;;;;;;30.50;59.08;101462.63;5024418;28;66527;-40
2024/01/29 00:11:54;;;;;;;37.95;19.77;;;;;;;30.43;59.67;101464.50;5019975;28;70022;-40
2024/01/29 00:14:24;;;;;;;41.45;19.33;;;;;;;30.43;59.00;101462.63;5017925;28;65750;-41
2024/01/29 00:16:55;;;;;;;39.45;19.85;;;;;;;30.47;59.27;101466.56;5019153;28;70218;-41
2024/01/29 00:19:25;;;;;;;38.22;19.10;;;;;;;30.53;59.13;101478.47;5030972;28;66135;-41
2024/01/29 00:21:56;;;;;;;34.22;19.08;;;;;;;30.52;59.31;101484.91;5037967;28;70585;-40
2024/01/29 00:24:26;;;;;;;32.05;18.42;;;;;;;30.46;59.40;101472.22;5046690;28;65694;-39
2024/01/29 00:26:57;;;;;;;37.13;19.30;;;;;;;30.54;59.66;101482.84;5018292;28;70338;-40
2024/01/29 00:29:27;;;;;;;32.70;18.88;;;;;;;30.39;59.68;101464.03;5026616;28;67046;-39
2024/01/29 00:31:58;;;;;;;28.52;18.23;;;;;;;30.45;60.25;101479.50;5018503;28;70777;-42
2024/01/29 00:34:28;;;;;;;26.27;17.42;;;;;;;30.51;59.11;101491.38;5018406;28;65841;-39
2024/01/29 00:36:59;;;;;;;25.10;18.35;;;;;;;30.53;59.38;101496.56;5045045;28;70522;-39
2024/01/29 00:39:30;;;;;;;30.05;18.08;;;;;;;30.51;59.39;101494.09;5038762;28;66516;-40
2024/01/29 00:42:00;;;;;;;27.38;17.77;;;;;;;30.57;59.57;101508.69;5026432;28;70330;-40
2024/01/29 00:44:31;;;;;;;28.83;17.60;;;;;;;30.51;59.48;101504.91;5024872;28;66322;-41
2024/01/29 00:47:02;;;;;;;25.67;17.33;;;;;;;30.58;59.49;101519.31;5043636;28;70369;-41
2024/01/29 00:49:32;;;;;;;24.02;16.25;;;;;;;30.60;59.23;101517.22;5026141;28;65353;-40
2024/01/29 00:52:04;;;;;;;29.02;17.30;;;;;;;30.61;59.09;101516.19;5030278;28;70099;-41
2024/01/29 00:54:34;;;;;;;25.45;16.60;;;;;;;30.59;59.44;101518.28;5027346;28;65324;-40
2024/01/29 00:57:05;;;;;;;24.30;16.98;;;;;;;30.62;59.46;101528.69;5023448;28;70352;-42
2024/01/29 00:59:35;;;;;;;29.35;16.90;;;;;;;30.61;59.23;101529.72;5023391;28;65766;-40
2024/01/29 01:02:06;;;;;;;29.17;17.20;;;;;;;30.62;59.69;101533.25;5040517;28;69357;-40
2024/01/29 01:04:36;;;;;;;26.17;16.80;;;;;;;30.56;59.56;101526.78;5016404;28;66343;-43
2024/01/29 01:07:07;;;;;;;25.85;17.23;;;;;;;30.63;59.54;101533.06;5018229;28;70494;-42
2024/01/29 01:09:37;;;;;;;25.30;16.80;;;;;;;30.58;59.45;101532.84;5019418;28;66796;-41
2024/01/29 01:12:07;;;;;;;27.58;17.80;;;;;;;30.65;59.24;101543.72;5031445;28;69717;-39
2024/01/29 01:14:38;;;;;;;26.83;17.98;;;;;;;30.65;59.24;101544.53;5033977;28;66397;-41
2024/01/29 01:17:08;;;;;;;22.23;16.20;;;;;;;30.65;59.39;101546.41;5037172;28;70813;-41
2024/01/29 01:19:39;;;;;;;20.45;16.42;;;;;;;30.65;59.18;101549.97;5017503;28;66314;-41
2024/01/29 01:22:09;;;;;;;21.63;16.17;;;;;;;30.61;59.45;101543.25;5020588;28;70112;-41
2024/01/29 01:24:40;;;;;;;24.17;16.55;;;;;;;30.66;59.25;101551.63;5019222;28;65196;-39
2024/01/29 01:27:11;;;;;;;22.23;17.13;;;;;;;30.67;59.42;101558.72;5020945;28;69726;-40
2024/01/29 01:29:42;;;;;;;21.17;16.40;;;;;;;30.67;59.59;101558.72;5025796;28;66442;-40
2024/01/29 01:32:13;;;;;;;21.33;16.00;;;;;;;30.70;59.76;101557.44;5019570;28;70715;-39
2024/01/29 01:34:43;;;;;;;27.35;17.48;;;;;;;30.70;59.59;101558.31;5033446;28;66324;-39
2024/01/29 01:37:14;;;;;;;20.60;16.33;;;;;;;30.70;59.77;101558.31;5029247;28;70964;-39
2024/01/29 01:39:44;;;;;;;17.63;15.07;;;;;;;30.68;59.93;101548.72;5018444;28;65786;-40
2024/01/29 01:42:15;;;;;;;20.50;16.25;;;;;;;30.68;59.88;101549.53;5038336;28;69426;-40
2024/01/29 01:44:48;;;;;;;24.33;15.98;;;;;;;30.72;59.36;101558.91;5030156;28;66126;-42
2024/01/29 01:47:19;;;;;;;23.38;17.02;;;;;;;30.72;59.95;101545.38;5015026;28;69283;-42
2024/01/29 01:49:50;;;;;;;22.73;16.20;;;;;;;30.72;59.66;101539.97;5016670;28;66488;-40
2024/01/29 01:52:21;;;;;;;21.23;15.30;;;;;;;30.70;59.38;101552.91;5024360;28;70826;-40
2024/01/29 01:54:53;;;;;;;20.03;16.47;;;;;;;30.71;59.56;101548.31;5038182;28;66333;-40
2024/01/29 01:57:23;;;;;;;24.05;16.77;;;;;;;30.73;60.04;101552.47;5021394;28;70131;-40
2024/01/29 01:59:54;;;;;;;21.08;16.90;;;;;;;30.71;59.98;101543.72;5022254;28;66782;-40
2024/01/29 02:02:35;;;;;;;21.02;16.38;;;;;;;30.75;59.69;101551.44;5023311;28;70836;-39
2024/01/29 02:05:06;;;;;;;20.75;16.80;;;;;;;30.73;59.82;101549.78;5025766;28;67329;-40
2024/01/29 02:07:37;;;;;;;18.77;15.80;;;;;;;30.75;59.99;101548.72;5031188;28;69113;-39
2024/01/29 02:10:08;;;;;;;24.70;15.57;;;;;;;30.78;59.93;101548.31;5030402;28;66738;-40
2024/01/29 02:12:39;;;;;;;17.73;15.80;;;;;;;30.76;60.23;101550.38;5041976;28;71529;-41
2024/01/29 02:15:09;;;;;;;20.33;15.50;;;;;;;30.71;59.61;101546.44;5028853;28;66245;-40
2024/01/29 02:17:40;;;;;;;18.73;15.48;;;;;;;30.77;59.70;101549.38;5046384;28;69516;-40
2024/01/29 02:20:11;;;;;;;21.05;16.60;;;;;;;30.49;59.81;101507.00;5033900;28;65558;-40
2024/01/29 02:22:44;;;;;;;20.10;15.50;;;;;;;30.71;60.22;101541.00;5018745;28;70040;-40
2024/01/29 02:25:15;;;;;;;19.50;15.52;;;;;;;30.79;60.04;101539.16;5035338;28;65793;-40
2024/01/29 02:27:45;;;;;;;18.73;15.48;;;;;;;30.78;60.08;101532.91;5025906;28;70506;-40
2024/01/29 02:30:16;;;;;;;22.52;16.25;;;;;;;30.86;59.83;101540.03;5029833;28;66441;-39
2024/01/29 02:32:46;;;;;;;19.38;16.13;;;;;;;30.74;59.93;101520.81;5035047;28;70245;-41
2024/01/29 02:35:17;;;;;;;18.90;15.93;;;;;;;30.88;59.99;101537.97;5024198;28;66543;-39
2024/01/29 02:37:47;;;;;;;19.85;15.05;;;;;;;30.89;59.41;101535.03;5021767;28;70119;-40
2024/01/29 02:40:18;;;;;;;16.60;14.90;;;;;;;30.90;59.60;101536.72;5019464;28;65736;-41
2024/01/29 02:42:48;;;;;;;18.38;15.10;;;;;;;30.92;59.72;101528.38;5022270;28;69739;-41
2024/01/29 02:45:19;;;;;;;18.92;15.75;;;;;;;30.93;59.70;101524.66;5030431;28;66117;-40
2024/01/29 02:47:50;;;;;;;16.17;14.57;;;;;;;30.91;59.97;101524.00;5019668;28;70406;-41
2024/01/29 02:50:25;;;;;;;17.17;15.38;;;;;;;30.93;59.66;101516.53;5038137;28;66749;-40
2024/01/29 02:52:56;;;;;;;20.10;16.05;;;;;;;30.71;59.42;101484.13;5025144;28;70014;-40
2024/01/29 02:55:26;;;;;;;18.60;15.40;;;;;;;30.70;60.10;101477.06;5043002;28;67198;-40
2024/01/29 02:57:57;;;;;;;16.90;15.15;;;;;;;30.93;59.93;101514.63;5017056;28;70421;-41
2024/01/29 03:00:27;;;;;;;19.05;15.48;;;;;;;30.95;59.49;101511.72;5023133;28;66156;-40
2024/01/29 03:02:58;;;;;;;21.77;16.08;;;;;;;31.00;59.85;101508.38;5019175;28;70297;-39
2024/01/29 03:05:29;;;;;;;21.15;15.48;;;;;;;31.02;59.42;101507.16;5021886;28;66162;-39
2024/01/29 03:07:59;;;;;;;17.60;15.73;;;;;;;31.01;59.77;101499.22;5034794;28;70337;-39
2024/01/29 03:10:30;;;;;;;17.08;15.23;;;;;;;30.61;59.69;101428.72;5020794;28;66226;-39
2024/01/29 03:13:00;;;;;;;15.57;13.75;;;;;;;31.07;59.31;101503.81;5032045;28;69958;-40
2024/01/29 03:15:31;;;;;;;17.02;15.20;;;;;;;31.08;59.90;101502.78;5019174;28;64831;-40
2024/01/29 03:18:01;;;;;;;16.55;14.82;;;;;;;31.07;59.87;101498.41;5022539;28;69241;-41
2024/01/29 03:20:32;;;;;;;17.20;14.77;;;;;;;31.11;59.48;101494.22;5033008;28;65490;-40
2024/01/29 03:23:02;;;;;;;18.25;14.80;;;;;;;31.13;59.38;101492.97;5026975;28;69829;-40
2024/01/29 03:25:33;;;;;;;15.90;13.60;;;;;;;31.14;59.42;101483.81;5026326;28;66829;-42
2024/01/29 03:28:05;;;;;;;16.05;14.48;;;;;;;31.15;59.53;101488.19;5026177;28;69395;-41
2024/01/29 03:30:36;;;;;;;14.65;13.23;;;;;;;31.18;59.04;101495.09;5023176;28;66682;-41
2024/01/29 03:33:07;;;;;;;15.98;14.48;;;;;;;31.19;59.23;101490.50;5028029;28;70324;-40
2024/01/29 03:35:38;;;;;;;16.08;14.20;;;;;;;31.08;59.17;101462.97;5030411;28;66113;-40
2024/01/29 03:38:08;;;;;;;14.80;13.30;;;;;;;31.23;59.51;101486.31;5022967;28;69749;-40
2024/01/29 03:40:38;;;;;;;15.43;13.75;;;;;;;31.24;59.03;101483.41;5030180;28;66308;-40
2024/01/29 03:43:09;;;;;;;15.30;13.88;;;;;;;31.27;59.43;101474.03;5048882;28;70903;-40
2024/01/29 03:45:39;;;;;;;15.85;13.18;;;;;;;31.29;59.21;101470.06;5024656;28;66544;-40
2024/01/29 03:48:10;;;;;;;15.52;13.95;;;;;;;31.30;59.00;101460.06;5031323;28;70246;-42
2024/01/29 03:50:41;;;;;;;14.50;13.00;;;;;;;31.12;59.42;101437.13;5046761;28;67360;-41
2024/01/29 03:53:12;;;;;;;14.35;12.95;;;;;;;31.30;59.14;101454.63;5038519;28;70018;-42
2024/01/29 03:55:42;;;;;;;14.27;12.80;;;;;;;31.34;59.11;101451.28;5020019;28;65198;-40
2024/01/29 03:58:13;;;;;;;15.07;13.38;;;;;;;31.37;59.25;101448.19;5024919;28;70077;-40
2024/01/29 04:00:44;;;;;;;14.27;12.40;;;;;;;31.37;59.19;101456.31;5028466;28;67300;-40
2024/01/29 04:03:14;;;;;;;15.82;12.95;;;;;;;31.40;58.77;101444.22;5024352;28;69399;-41
2024/01/29 04:05:45;;;;;;;20.20;13.68;;;;;;;31.43;59.34;101438.38;5021526;28;66785;-41
2024/01/29 04:08:16;;;;;;;15.77;13.25;;;;;;;31.45;59.14;101438.16;5018169;28;70371;-41
2024/01/29 04:10:46;;;;;;;14.27;12.98;;;;;;;31.42;58.95;101425.84;5037889;28;66633;-41
2024/01/29 04:13:16;;;;;;;13.77;12.48;;;;;;;31.36;58.98;101407.72;5033678;28;70006;-40
2024/01/29 04:15:47;;;;;;;13.95;12.68;;;;;;;31.50;59.08;101425.63;5022032;28;66416;-40
2024/01/29 04:18:17;;;;;;;13.98;12.68;;;;;;;31.52;58.91;101420.84;5022858;28;70205;-40
2024/01/29 04:20:49;;;;;;;14.15;12.77;;;;;;;31.54;58.79;101424.19;5019281;28;66922;-40
2024/01/29 04:23:19;;;;;;;13.73;12.32;;;;;;;31.54;58.76;101418.75;5027421;28;68951;-40
2024/01/29 04:25:50;;;;;;;15.30;11.90;;;;;;;31.52;58.88;101407.28;5026384;28;65592;-40
2024/01/29 04:28:20;;;;;;;13.95;12.75;;;;;;;31.49;58.60;101396.88;5023066;28;70053;-42
2024/01/29 04:30:51;;;;;;;13.55;12.23;;;;;;;31.60;58.61;101396.22;5028230;28;66072;-41
2024/01/29 04:33:21;;;;;;;13.52;12.13;;;;;;;31.55;58.47;101387.03;5029722;28;69177;-40
2024/01/29 04:35:52;;;;;;;13.82;12.25;;;;;;;31.61;58.42;101392.44;5023424;28;66530;-48
2024/01/29 04:38:22;;;;;;;14.65;11.52;;;;;;;31.56;58.46;101378.69;5026440;28;70007;-39
2024/01/29 04:40:53;;;;;;;13.40;12.20;;;;;;;31.68;58.56;101391.56;5029753;28;66274;-42
2024/01/29 04:43:23;;;;;;;15.50;11.88;;;;;;;31.71;58.17;101380.34;5030479;28;70740;-41
2024/01/29 04:45:53;;;;;;;13.07;11.88;;;;;;;31.70;58.59;101378.66;5026554;28;66401;-40
2024/01/29 04:48:24;;;;;;;12.68;11.48;;;;;;;31.71;58.73;101378.44;5027874;28;69969;-39
2024/01/29 04:50:54;;;;;;;13.80;10.77;;;;;;;31.72;58.33;101368.41;5024997;28;65457;-41
2024/01/29 04:53:25;;;;;;;12.40;11.27;;;;;;;31.75;58.39;101359.84;5029941;28;69859;-40
2024/01/29 04:55:55;;;;;;;13.60;12.32;;;;;;;31.77;58.55;101368.63;5019298;28;66616;-39
2024/01/29 04:58:26;;;;;;;12.30;11.25;;;;;;;31.78;58.37;101364.84;5032726;28;70196;-42
2024/01/29 05:00:56;;;;;;;12.32;11.30;;;;;;;31.71;58.09;101347.78;5030309;28;66288;-40
2024/01/29 05:03:27;;;;;;;17.35;12.10;;;;;;;31.77;58.38;101344.19;5038759;28;69761;-40
2024/01/29 05:05:58;;;;;;;13.40;11.13;;;;;;;31.75;58.09;101332.72;5027790;28;65321;-41
2024/01/29 05:08:29;;;;;;;11.05;9.82;;;;;;;31.81;58.40;101337.28;5020862;28;70326;-40
2024/01/29 05:10:59;;;;;;;13.00;11.30;;;;;;;31.74;58.50;101320.22;5031294;28;65810;-40
2024/01/29 05:13:29;;;;;;;12.55;11.38;;;;;;;31.82;57.98;101338.97;5029929;28;70533;-41
2024/01/29 05:16:00;;;;;;;12.65;11.13;;;;;;;31.86;57.82;101331.22;5033213;28;66543;-41
2024/01/29 05:18:34;;;;;;;11.55;10.38;;;;;;;31.88;57.77;101329.97;5029622;28;70565;-40
2024/01/29 05:21:05;;;;;;;11.35;10.27;;;;;;;31.89;58.10;101323.47;5031054;28;66196;-42
2024/01/29 05:23:36;;;;;;;13.20;10.35;;;;;;;31.88;57.96;101308.25;5030690;28;69676;-41
2024/01/29 05:26:06;;;;;;;11.02;10.02;;;;;;;31.82;57.83;101298.28;5031911;28;66762;-41
2024/01/29 05:28:37;;;;;;;11.60;10.20;;;;;;;31.93;57.74;101302.19;5032068;28;70460;-40
2024/01/29 05:31:07;;;;;;;11.45;10.00;;;;;;;31.85;57.50;101276.13;5025874;28;66225;-40
2024/01/29 05:33:38;;;;;;;10.80;9.77;;;;;;;31.90;57.67;101280.88;5024536;28;69557;-42
2024/01/29 05:36:08;;;;;;;10.82;10.00;;;;;;;31.95;57.79;101289.25;5026855;28;65365;-42
2024/01/29 05:38:39;;;;;;;10.95;9.82;;;;;;;31.97;57.78;101279.84;5028718;28;70662;-40
2024/01/29 05:41:09;;;;;;;12.75;10.35;;;;;;;32.00;57.63;101275.84;5026803;28;66910;-40
2024/01/29 05:43:40;;;;;;;10.18;9.32;;;;;;;31.92;57.32;101268.81;5023688;28;70473;-41
2024/01/29 05:46:10;;;;;;;10.95;9.98;;;;;;;32.00;57.49;101276.69;5023066;28;66542;-41
2024/01/29 05:48:40;;;;;;;9.90;9.15;;;;;;;32.02;57.47;101269.16;5020594;28;70250;-42
2024/01/29 05:51:11;;;;;;;10.63;9.80;;;;;;;32.05;57.42;101267.91;5030752;28;67399;-41
2024/01/29 05:53:41;;;;;;;10.80;9.80;;;;;;;32.02;57.45;101250.16;5035449;28;70813;-41
2024/01/29 05:56:12;;;;;;;14.32;9.65;;;;;;;31.98;57.60;101242.69;5023911;28;65907;-40
2024/01/29 05:58:45;;;;;;;10.30;9.60;;;;;;;32.05;57.29;101252.44;5018464;28;69959;-42
2024/01/29 06:01:16;;;;;;;9.77;9.07;;;;;;;32.10;57.54;101242.81;5030511;28;66399;-38
2024/01/29 06:03:46;;;;;;;9.88;8.88;;;;;;;32.09;57.11;101236.53;5034095;28;69152;-42
2024/01/29 06:06:17;;;;;;;10.20;9.35;;;;;;;32.14;57.13;101235.91;5018647;28;65105;-41
2024/01/29 06:08:48;;;;;;;10.35;9.25;;;;;;;32.15;57.17;101207.69;5035480;28;70056;-40
2024/01/29 06:11:19;;;;;;;10.15;9.25;;;;;;;32.17;57.29;101219.16;5051227;28;66433;-42
2024/01/29 06:13:50;;;;;;;9.15;8.45;;;;;;;32.06;57.36;101182.72;5039891;28;70340;-40
2024/01/29 06:16:21;;;;;;;11.05;9.27;;;;;;;32.21;57.14;101204.13;5032811;28;66609;-40
2024/01/29 06:18:52;;;;;;;10.68;9.57;;;;;;;32.19;57.10;101187.22;5036006;28;68922;-42
2024/01/29 06:21:22;;;;;;;11.02;9.40;;;;;;;32.15;56.99;101178.69;5045181;28;66469;-41
2024/01/29 06:23:53;;;;;;;9.40;8.70;;;;;;;32.22;56.67;101182.16;5039918;28;70328;-41
2024/01/29 06:26:24;;;;;;;9.93;9.00;;;;;;;32.22;57.12;101176.72;5029800;28;66428;-40
2024/01/29 06:28:55;;;;;;;9.57;8.75;;;;;;;32.26;56.85;101169.81;5032398;28;69276;-43
2024/01/29 06:31:26;;;;;;;10.55;9.60;;;;;;;32.24;56.91;101169.19;5033192;28;65148;-42
2024/01/29 06:33:57;;;;;;;9.27;8.50;;;;;;;32.30;56.98;101162.06;5021020;28;70307;-42
2024/01/29 06:36:28;;;;;;;10.20;8.97;;;;;;;32.31;56.85;101163.69;5032603;28;66196;-42
2024/01/29 06:38:59;;;;;;;9.32;8.52;;;;;;;32.30;56.86;101156.63;5019191;28;69479;-41
2024/01/29 06:41:31;;;;;;;9.80;8.75;;;;;;;32.34;56.81;101155.09;5033956;28;65850;-41
2024/01/29 06:44:02;;;;;;;9.80;8.75;;;;;;;32.32;56.82;101138.22;5036034;28;70031;-41
2024/01/29 06:46:32;;;;;;;8.53;7.93;;;;;;;32.34;56.85;101141.53;5039217;28;66955;-41
2024/01/29 06:49:02;;;;;;;13.95;9.15;;;;;;;32.38;57.22;101140.06;5037646;28;69674;-40
2024/01/29 06:51:33;;;;;;;8.82;8.07;;;;;;;32.41;56.43;101142.31;5023687;28;66222;-40
2024/01/29 06:54:04;;;;;;;9.07;8.35;;;;;;;32.41;56.56;101136.06;5033843;28;70184;-41
2024/01/29 06:56:35;;;;;;;10.15;9.25;;;;;;;32.47;56.57;101141.44;5035382;28;65365;-40
2024/01/29 06:59:05;;;;;;;8.95;8.35;;;;;;;32.26;56.47;101095.69;5022998;28;70060;-40
2024/01/29 07:01:36;;;;;;;9.32;8.32;;;;;;;32.52;56.95;101129.91;5050895;28;66367;-42
2024/01/29 07:04:07;;;;;;;9.07;8.38;;;;;;;32.53;56.39;101122.59;5028641;28;69539;-41
2024/01/29 07:06:37;;;;;;;8.82;8.13;;;;;;;32.57;56.34;101118.34;5033441;28;66004;-42
2024/01/29 07:09:08;;;;;;;8.98;8.02;;;;;;;32.56;56.31;101105.84;5024909;28;70319;-41
2024/01/29 07:11:39;;;;;;;9.23;7.70;;;;;;;32.62;56.29;101104.94;5021066;28;65940;-40
2024/01/29 07:14:09;;;;;;;9.43;7.70;;;;;;;32.62;56.27;101099.50;5022617;28;70320;-41
2024/01/29 07:16:40;;;;;;;12.07;8.60;;;;;;;32.57;53.97;101102.91;5029892;28;66636;-38
2024/01/29 07:19:11;;;;;;;12.15;9.48;;;;;;;32.56;54.60;101090.38;5016970;28;69423;-40
2024/01/29 07:21:42;;;;;;;14.25;8.63;;;;;;;32.47;53.74;101092.56;5033601;28;66444;-38
2024/01/29 07:24:13;;;;;;;15.32;8.88;;;;;;;32.44;53.30;101084.00;5029272;28;70019;-42
2024/01/29 07:26:44;;;;;;;12.82;10.20;;;;;;;32.44;53.12;101086.72;5037960;28;65512;-38
2024/01/29 07:29:14;;;;;;;10.25;9.18;;;;;;;32.39;52.85;101079.25;5038135;28;69323;-38
2024/01/29 07:31:46;;;;;;;15.40;9.25;;;;;;;32.04;52.72;101011.19;5034627;28;66265;-38
2024/01/29 07:34:16;;;;;;;11.93;9.55;;;;;;;32.40;52.50;101067.34;5041655;28;69364;-39
2024/01/29 07:36:47;;;;;;;10.77;8.90;;;;;;;32.42;52.37;101062.50;5033232;28;65882;-38
2024/01/29 07:39:18;;;;;;;9.73;8.18;;;;;;;32.35;52.41;101048.19;5025759;28;70081;-38
2024/01/29 07:41:48;;;;;;;18.38;8.77;;;;;;;32.44;52.19;101052.25;5023499;28;65504;-41
2024/01/29 07:44:19;;;;;;;13.50;8.85;;;;;;;32.46;51.78;101052.91;5042048;28;70289;-39
2024/01/29 07:46:49;;;;;;;9.23;8.07;;;;;;;32.46;51.62;101047.47;5033296;28;66354;-39
2024/01/29 07:49:23;;;;;;;11.90;8.82;;;;;;;32.54;51.59;101040.06;5028215;28;69647;-39
2024/01/29 07:51:54;;;;;;;9.48;8.55;;;;;;;32.42;51.71;101015.53;5027500;28;66358;-50
2024/01/29 07:54:25;;;;;;;17.00;8.70;;;;;;;32.59;51.17;101037.50;5030592;28;69426;-39
2024/01/29 07:56:55;;;;;;;13.20;10.27;;;;;;;32.62;51.10;101023.44;5024153;28;65436;-39
2024/01/29 07:59:26;;;;;;;14.50;10.55;;;;;;;32.61;50.77;101024.53;5027492;28;69546;-38
2024/01/29 08:01:56;;;;;;;12.52;10.52;;;;;;;32.59;50.97;101018.47;5031244;28;65830;-39
2024/01/29 08:04:27;;;;;;;17.52;10.18;;;;;;;32.59;51.10;101011.16;5034640;28;68897;-38
2024/01/29 08:07:01;;;;;;;14.70;9.98;;;;;;;32.63;51.25;101009.66;5050763;28;66022;-42
2024/01/29 08:09:31;;;;;;;18.42;11.35;;;;;;;32.70;51.22;101020.41;5029442;28;69868;-39
2024/01/29 08:12:02;;;;;;;14.77;10.68;;;;;;;32.69;51.39;101007.91;5046381;28;66489;-37
2024/01/29 08:14:41;;;;;;;19.33;11.00;;;;;;;32.70;51.88;101012.25;5029238;28;70597;-39
2024/01/29 08:17:12;;;;;;;15.82;9.63;;;;;;;32.70;52.02;101004.94;5038338;28;66719;-40
2024/01/29 08:19:42;;;;;;;11.07;10.07;;;;;;;32.74;51.54;101002.63;5037469;28;70117;-39
2024/01/29 08:22:13;;;;;;;11.23;9.50;;;;;;;32.81;51.88;101016.91;5048491;28;66193;-42
2024/01/29 08:24:44;;;;;;;15.38;10.15;;;;;;;32.72;51.84;101004.72;5030605;28;70200;-39
2024/01/29 08:27:17;;;;;;;15.00;10.15;;;;;;;32.86;51.90;101018.94;5033878;28;66676;-40
2024/01/29 08:29:47;;;;;;;14.75;10.45;;;;;;;32.86;52.11;101013.53;5033682;28;69553;-39
2024/01/29 08:32:20;;;;;;;13.77;9.75;;;;;;;32.90;52.03;101009.25;5036014;28;65445;-40
2024/01/29 08:34:50;;;;;;;11.40;10.25;;;;;;;32.90;52.33;101010.13;5025995;28;70295;-40
2024/01/29 08:37:21;;;;;;;11.55;9.35;;;;;;;32.95;52.75;101001.25;5051146;28;66184;-40
2024/01/29 08:39:51;;;;;;;13.55;9.77;;;;;;;32.95;52.95;101009.41;5035233;28;69313;-40
2024/01/29 08:42:22;;;;;;;16.90;9.10;;;;;;;32.88;52.83;100989.66;5037261;28;66975;-40
2024/01/29 08:44:56;;;;;;;14.93;9.27;;;;;;;32.97;53.15;101001.03;5028231;28;70082;-39
2024/01/29 08:47:26;;;;;;;14.73;8.85;;;;;;;33.00;53.52;100997.88;5030888;28;66649;-39
2024/01/29 08:49:57;;;;;;;11.45;8.20;;;;;;;33.10;53.57;101000.88;5039626;28;70412;-39
2024/01/29 08:52:27;;;;;;;11.48;9.00;;;;;;;33.20;53.62;100998.41;5053370;28;66018;-39
2024/01/29 08:54:58;;;;;;;13.98;9.40;;;;;;;33.29;53.78;101007.88;5025599;28;68698;-40
2024/01/29 08:57:29;;;;;;;13.70;8.70;;;;;;;33.26;53.89;100983.84;5037375;28;65225;-40
2024/01/29 08:59:59;;;;;;;9.15;8.45;;;;;;;33.41;53.90;101004.34;5034119;28;70040;-39
2024/01/29 09:02:31;;;;;;;9.55;8.57;;;;;;;33.43;53.38;100996.78;5030607;28;66248;-39
2024/01/29 09:05:03;;;;;;;8.95;8.13;;;;;;;33.51;53.70;100999.16;5036318;28;70194;-39
2024/01/29 09:07:34;;;;;;;9.52;8.60;;;;;;;33.55;53.80;100997.66;5018638;28;66364;-39
2024/01/29 09:10:04;;;;;;;9.63;8.25;;;;;;;33.57;53.74;100992.78;5023404;28;69928;-39
2024/01/29 09:12:35;;;;;;;8.60;7.70;;;;;;;33.57;53.61;100996.34;5029813;28;66491;-39
2024/01/29 09:15:06;;;;;;;9.32;8.43;;;;;;;33.66;53.65;101007.72;5041617;28;69276;-39
2024/01/29 09:17:37;;;;;;;10.20;9.30;;;;;;;33.66;53.71;101007.72;5042698;28;66516;-40
2024/01/29 09:20:08;;;;;;;13.37;8.97;;;;;;;33.61;54.34;101004.88;5029571;28;69323;-43
2024/01/29 09:22:39;;;;;;;15.40;8.55;;;;;;;33.56;54.46;101013.72;5023838;28;66953;-38
2024/01/29 09:25:09;;;;;;;14.23;8.95;;;;;;;33.48;55.00;101010.50;5042225;28;69850;-41
2024/01/29 09:27:40;;;;;;;17.90;9.40;;;;;;;33.44;55.09;101014.75;5025887;28;66297;-40
2024/01/29 09:30:11;;;;;;;16.70;8.53;;;;;;;33.43;55.26;101018.53;5024483;28;70797;-41
2024/01/29 09:32:41;;;;;;;13.15;8.05;;;;;;;33.36;55.35;101024.91;5038414;28;65364;-40
2024/01/29 09:35:12;;;;;;;13.70;8.25;;;;;;;33.38;55.52;101027.41;5031145;28;70219;-41
2024/01/29 09:37:42;;;;;;;18.15;8.90;;;;;;;33.37;55.97;101037.44;5026447;28;66227;-41
2024/01/29 09:40:13;;;;;;;9.27;8.25;;;;;;;33.37;55.88;101031.16;5022013;28;70437;-38
2024/01/29 09:42:50;;;;;;;14.82;8.30;;;;;;;32.96;55.97;100973.03;5030770;28;65599;-40
2024/01/29 09:45:24;;;;;;;13.18;8.35;;;;;;;33.30;56.12;101035.91;5024669;28;70244;-37
2024/01/29 09:47:56;;;;;;;14.63;8.65;;;;;;;33.28;56.00;101038.84;5028623;28;66213;-40
2024/01/29 09:50:30;;;;;;;16.15;8.98;;;;;;;33.26;55.96;101043.66;5026109;28;69787;-40
2024/01/29 09:53:02;;;;;;;13.18;9.05;;;;;;;33.24;56.10;101043.09;5036681;28;66523;-41
2024/01/29 09:55:33;;;;;;;8.68;7.88;;;;;;;33.23;56.16;101040.59;5020240;28;70115;-40
2024/01/29 09:58:04;;;;;;;11.02;8.10;;;;;;;33.18;55.80;101045.91;5024614;28;66583;-41
2024/01/29 10:00:35;;;;;;;9.20;8.30;;;;;;;33.17;55.96;101042.34;5046590;28;69379;-39
2024/01/29 10:03:08;;;;;;;10.88;7.75;;;;;;;33.21;56.21;101065.31;5029874;28;66132;-39
2024/01/29 10:05:40;;;;;;;17.80;8.50;;;;;;;33.21;56.17;101065.31;5027574;28;70054;-39
2024/01/29 10:08:12;;;;;;;10.38;7.70;;;;;;;33.12;56.28;101055.81;5021351;28;66085;-39
2024/01/29 10:10:42;;;;;;;12.27;8.05;;;;;;;33.19;56.49;101072.03;5029779;28;70221;-41
2024/01/29 10:13:13;;;;;;;14.13;7.78;;;;;;;33.16;56.48;101073.31;5034699;28;65274;-40
2024/01/29 10:15:44;;;;;;;12.20;7.78;;;;;;;33.10;57.20;101063.38;5046362;28;69494;-41
2024/01/29 10:18:16;;;;;;;18.95;7.50;;;;;;;33.14;56.88;101070.00;5022289;28;65644;-41
2024/01/29 10:20:47;;;;;;;15.48;6.97;;;;;;;33.07;57.25;101063.81;5029227;28;70397;-42
2024/01/29 10:23:17;;;;;;;13.43;7.30;;;;;;;33.12;57.36;101083.00;5031998;28;65758;-42
2024/01/29 10:25:58;;;;;;;16.60;6.80;;;;;;;33.00;57.07;101065.81;5023543;28;68894;-40
2024/01/29 10:28:29;;;;;;;22.08;7.93;;;;;;;33.16;56.89;101097.78;5026644;28;66162;-42
2024/01/29 10:30:59;;;;;;;10.87;6.63;;;;;;;32.97;56.73;101079.84;5034349;28;69671;-40
2024/01/29 10:33:30;;;;;;;10.35;6.85;;;;;;;33.08;57.12;101098.94;5029365;28;65635;-45
2024/01/29 10:36:02;;;;;;;18.95;7.35;;;;;;;33.10;57.24;101112.31;5023838;28;70419;-40
2024/01/29 10:38:40;;;;;;;15.32;7.40;;;;;;;33.06;56.85;101111.91;5046639;28;66216;-41
2024/01/29 10:41:17;;;;;;;14.13;7.15;;;;;;;33.08;56.96;101119.84;5036012;28;68348;-40
2024/01/29 10:43:49;;;;;;;25.55;7.72;;;;;;;33.08;57.08;101126.13;5030497;28;65207;-40
2024/01/29 10:46:22;;;;;;;10.25;7.07;;;;;;;32.99;57.27;101113.03;5022956;28;69532;-40
2024/01/29 10:48:53;;;;;;;15.45;6.70;;;;;;;33.01;57.29;101119.09;5029675;28;66175;-41
2024/01/29 10:51:25;;;;;;;11.00;6.40;;;;;;;32.99;57.23;101129.34;5015343;28;69293;-41
2024/01/29 10:53:56;;;;;;;17.07;7.30;;;;;;;33.02;57.42;101142.53;5013561;28;67012;-41
2024/01/29 10:56:28;;;;;;;14.93;6.78;;;;;;;33.03;57.40;101142.28;5036010;28;69681;-40
2024/01/29 10:59:03;;;;;;;12.40;6.28;;;;;;;33.02;57.59;101143.34;5036727;28;65756;-40
2024/01/29 11:01:35;;;;;;;9.13;6.82;;;;;;;33.03;57.71;101146.88;5024609;28;70118;-39
2024/01/29 11:04:16;;;;;;;12.20;7.47;;;;;;;32.99;57.59;101153.78;5039221;28;66361;-39
2024/01/29 11:06:56;;;;;;;14.80;7.50;;;;;;;32.57;58.27;101080.31;5025200;28;69241;-41
2024/01/29 11:09:29;;;;;;;13.15;7.57;;;;;;;32.98;58.02;101155.69;5023777;28;66177;-40
2024/01/29 11:12:01;;;;;;;14.02;7.30;;;;;;;32.93;58.13;101150.94;5026970;28;69575;-40
2024/01/29 11:14:32;;;;;;;23.05;6.55;;;;;;;32.97;58.23;101155.94;5029141;28;65792;-41
2024/01/29 11:17:03;;;;;;;11.15;6.85;;;;;;;32.98;58.46;101165.72;5036537;28;70572;-40
2024/01/29 11:19:34;;;;;;;9.82;6.50;;;;;;;32.87;58.92;101151.84;5031166;28;65547;-41
2024/01/29 11:22:05;;;;;;;12.52;6.97;;;;;;;32.91;59.57;101163.94;5034073;28;70443;-41
2024/01/29 11:24:36;;;;;;;15.75;6.82;;;;;;;32.89;59.56;101165.22;5031971;28;66190;-40
2024/01/29 11:27:10;;;;;;;10.10;6.93;;;;;;;32.91;60.51;101174.81;5036333;28;70475;-42
2024/01/29 11:29:45;;;;;;;13.85;6.28;;;;;;;32.91;60.90;101191.09;5041656;28;66378;-41
2024/01/29 11:32:17;;;;;;;16.48;7.97;;;;;;;32.86;60.43;101182.78;5050324;28;70434;-40